createdAt,value
2022-12-27T00:00:29.595Z,6.30
2022-12-27T00:02:56.541Z,6.30
2022-12-27T00:05:23.493Z,6.30
2022-12-27T00:07:50.465Z,6.20
2022-12-27T00:10:17.387Z,6.20
2022-12-27T00:12:44.557Z,6.20
2022-12-27T00:15:11.503Z,6.20
2022-12-27T00:17:39.640Z,6.30
2022-12-27T00:20:11.271Z,6.20
2022-12-27T00:22:38.979Z,6.20
2022-12-27T00:25:05.945Z,6.20
2022-12-27T00:30:00.145Z,6.20
2022-12-27T00:32:27.045Z,6.30
2022-12-27T00:34:53.987Z,6.30
2022-12-27T00:37:20.883Z,6.40
2022-12-27T00:39:47.954Z,6.50
2022-12-27T00:42:14.976Z,6.60
2022-12-27T00:44:43.400Z,6.60
2022-12-27T00:47:10.869Z,6.70
2022-12-27T00:49:37.746Z,6.70
2022-12-27T00:52:04.798Z,6.80
2022-12-27T00:54:31.788Z,6.60
2022-12-27T00:56:58.626Z,6.60
2022-12-27T00:59:25.477Z,6.60
2022-12-27T01:01:52.585Z,6.50
2022-12-27T01:04:19.555Z,6.40
2022-12-27T01:06:46.436Z,6.40
2022-12-27T01:09:13.228Z,6.40
2022-12-27T01:11:40.489Z,6.30
2022-12-27T01:14:07.352Z,6.30
2022-12-27T01:16:34.738Z,6.30
2022-12-27T01:19:01.902Z,6.20
2022-12-27T01:21:31.069Z,6.10
2022-12-27T01:23:58.117Z,5.90
2022-12-27T01:28:53.080Z,5.80
2022-12-27T01:33:47.985Z,5.70
2022-12-27T01:36:19.460Z,5.70
2022-12-27T01:38:48.214Z,5.70
2022-12-27T01:41:43.179Z,5.70
2022-12-27T01:44:28.663Z,5.60
2022-12-27T01:46:55.666Z,5.60
2022-12-27T01:49:22.545Z,5.60
2022-12-27T01:51:49.649Z,5.50
2022-12-27T01:54:16.509Z,5.50
2022-12-27T01:56:43.469Z,5.50
2022-12-27T01:59:11.057Z,5.50
2022-12-27T02:01:40.317Z,5.50
2022-12-27T02:04:21.663Z,5.50
2022-12-27T02:06:49.010Z,5.50
2022-12-27T02:09:42.445Z,5.50
2022-12-27T02:12:10.412Z,5.50
2022-12-27T02:14:42.066Z,5.50
2022-12-27T02:17:19.730Z,5.50
2022-12-27T02:22:16.545Z,5.50
2022-12-27T02:29:37.788Z,5.40
2022-12-27T02:37:07.175Z,5.40
2022-12-27T02:47:51.432Z,5.50
2022-12-27T02:50:36.787Z,5.50
2022-12-27T02:55:37.017Z,5.60
2022-12-27T03:06:23.595Z,5.60
2022-12-27T03:09:07.109Z,5.60
2022-12-27T03:12:04.126Z,5.50
2022-12-27T03:14:55.474Z,5.50
2022-12-27T03:17:44.121Z,5.40
2022-12-27T03:20:31.964Z,5.40
2022-12-27T03:23:18.986Z,5.30
2022-12-27T03:25:47.415Z,5.20
2022-12-27T03:28:34.761Z,5.20
2022-12-27T03:31:27.736Z,5.10
2022-12-27T03:34:04.690Z,4.90
2022-12-27T03:36:51.873Z,4.80
2022-12-27T03:39:18.963Z,4.80
2022-12-27T03:42:07.209Z,4.80
2022-12-27T03:44:34.173Z,4.50
2022-12-27T03:47:21.281Z,4.40
2022-12-27T03:49:53.977Z,4.20
2022-12-27T03:52:27.141Z,4.20
2022-12-27T03:54:54.246Z,4.20
2022-12-27T03:57:22.445Z,4.00
2022-12-27T04:02:16.776Z,3.70
2022-12-27T04:04:43.726Z,3.60
2022-12-27T04:09:56.324Z,3.40
2022-12-27T04:12:41.996Z,3.30
2022-12-27T04:15:27.557Z,3.20
2022-12-27T04:18:12.842Z,3.00
2022-12-27T04:20:58.438Z,3.00
2022-12-27T04:23:43.627Z,2.90
2022-12-27T04:26:29.068Z,2.90
2022-12-27T04:29:14.377Z,2.80
2022-12-27T04:31:59.794Z,2.80
2022-12-27T04:37:13.568Z,2.80
2022-12-27T04:39:40.680Z,2.80
2022-12-27T04:42:26.253Z,2.80
2022-12-27T04:45:15.144Z,2.60
2022-12-27T04:48:00.712Z,2.70
2022-12-27T04:50:47.107Z,2.50
2022-12-27T04:53:33.913Z,2.50
2022-12-27T04:56:01.100Z,2.50
2022-12-27T04:58:27.944Z,2.40
2022-12-27T05:03:41.738Z,2.30
2022-12-27T05:06:08.769Z,2.30
2022-12-27T05:08:54.265Z,2.20
2022-12-27T05:11:39.474Z,2.30
2022-12-27T05:16:37.938Z,2.20
2022-12-27T05:19:05.670Z,2.30
2022-12-27T05:21:36.969Z,2.20
2022-12-27T05:24:22.766Z,2.20
2022-12-27T05:26:49.775Z,2.10
2022-12-27T05:29:16.772Z,-0.50
2022-12-27T05:31:43.716Z,2.10
2022-12-27T05:34:10.616Z,2.10
2022-12-27T05:39:04.649Z,2.10
2022-12-27T05:41:31.656Z,2.10
2022-12-27T05:44:02.119Z,2.20
2022-12-27T05:46:33.720Z,2.20
2022-12-27T05:49:00.589Z,2.30
2022-12-27T05:51:27.456Z,2.40
2022-12-27T05:53:54.276Z,2.50
2022-12-27T05:56:21.701Z,2.60
2022-12-27T05:58:48.717Z,2.70
2022-12-27T06:03:43.274Z,3.00
2022-12-27T06:06:10.269Z,3.20
2022-12-27T06:11:11.469Z,3.50
2022-12-27T06:13:39.342Z,3.80
2022-12-27T06:18:34.320Z,4.20
2022-12-27T06:21:05.626Z,4.40
2022-12-27T06:23:35.850Z,4.60
2022-12-27T06:26:09.708Z,4.90
2022-12-27T06:28:36.666Z,5.40
2022-12-27T06:33:30.916Z,6.30
2022-12-27T06:35:57.990Z,6.60
2022-12-27T06:38:25.029Z,6.90
2022-12-27T06:40:51.909Z,7.10
2022-12-27T06:43:18.842Z,7.20
2022-12-27T06:45:45.661Z,7.30
2022-12-27T06:48:12.551Z,7.40
2022-12-27T06:50:39.372Z,7.40
2022-12-27T06:53:06.340Z,7.60
2022-12-27T06:55:33.248Z,7.60
2022-12-27T06:58:00.101Z,7.70
2022-12-27T07:00:27.070Z,7.70
2022-12-27T07:05:21.328Z,7.90
2022-12-27T07:07:48.276Z,8.00
2022-12-27T07:12:42.391Z,8.30
2022-12-27T07:15:09.483Z,8.20
2022-12-27T07:27:25.355Z,8.30
2022-12-27T07:29:52.283Z,8.40
2022-12-27T07:32:19.229Z,8.30
2022-12-27T07:34:46.184Z,8.40
2022-12-27T07:37:13.135Z,8.40
2022-12-27T07:39:40.121Z,8.30
2022-12-27T07:42:08.598Z,8.30
2022-12-27T07:44:35.694Z,8.20
2022-12-27T07:47:02.595Z,8.30
2022-12-27T07:49:29.491Z,8.30
2022-12-27T07:54:23.588Z,8.30
2022-12-27T08:02:05.838Z,8.70
2022-12-27T08:04:34.193Z,8.80
2022-12-27T08:07:03.519Z,8.80
2022-12-27T08:09:32.408Z,9.00
2022-12-27T08:16:54.176Z,9.10
2022-12-27T08:19:21.079Z,9.10
2022-12-27T08:21:47.921Z,9.00
2022-12-27T08:24:14.813Z,9.00
2022-12-27T08:26:41.724Z,9.10
2022-12-27T08:29:08.586Z,9.20
2022-12-27T08:31:35.453Z,9.20
2022-12-27T08:34:05.020Z,9.20
2022-12-27T08:39:19.397Z,9.10
2022-12-27T08:41:46.707Z,9.00
2022-12-27T08:44:13.613Z,9.10
2022-12-27T08:46:40.631Z,9.10
2022-12-27T08:49:07.623Z,9.20
2022-12-27T08:51:40.714Z,9.30
2022-12-27T08:54:08.760Z,9.30
2022-12-27T08:56:35.936Z,9.40
2022-12-27T08:59:02.808Z,9.40
2022-12-27T09:03:57.049Z,9.40
2022-12-27T09:06:24.984Z,9.40
2022-12-27T09:08:52.185Z,9.40
2022-12-27T09:11:20.510Z,9.40
2022-12-27T09:13:47.583Z,9.50
2022-12-27T09:16:15.525Z,9.60
2022-12-27T09:18:42.862Z,9.70
2022-12-27T09:21:11.626Z,9.70
2022-12-27T09:23:39.048Z,9.80
2022-12-27T09:26:07.143Z,9.90
2022-12-27T09:28:34.375Z,9.90
2022-12-27T09:31:01.737Z,9.90
2022-12-27T09:33:29.017Z,9.90
2022-12-27T09:36:03.532Z,7.70
2022-12-27T09:38:30.497Z,9.70
2022-12-27T09:40:59.364Z,9.70
2022-12-27T09:43:35.157Z,9.80
2022-12-27T09:46:02.610Z,9.80
2022-12-27T09:48:48.009Z,9.80
2022-12-27T09:51:41.368Z,9.80
2022-12-27T09:57:09.702Z,9.70
2022-12-27T09:59:29.126Z,9.70
2022-12-27T10:01:56.038Z,9.60
2022-12-27T10:09:37.045Z,9.50
2022-12-27T10:14:50.073Z,9.00
2022-12-27T10:17:16.893Z,8.90
2022-12-27T10:19:46.534Z,8.70
2022-12-27T10:22:31.828Z,8.60
2022-12-27T10:25:01.102Z,8.60
2022-12-27T10:27:29.435Z,8.70
2022-12-27T10:29:57.619Z,8.70
2022-12-27T10:35:18.221Z,8.80
2022-12-27T10:40:16.331Z,9.00
2022-12-27T10:50:11.483Z,9.00
2022-12-27T10:52:38.446Z,9.00
2022-12-27T10:55:05.656Z,9.10
2022-12-27T10:57:36.191Z,9.00
2022-12-27T11:02:30.595Z,9.10
2022-12-27T11:05:01.253Z,9.20
2022-12-27T11:07:32.474Z,9.20
2022-12-27T11:12:32.328Z,9.30
2022-12-27T11:15:00.571Z,9.30
2022-12-27T11:19:55.655Z,9.30
2022-12-27T11:22:22.543Z,9.30
2022-12-27T11:27:29.289Z,9.20
2022-12-27T11:29:57.962Z,9.20
2022-12-27T11:32:25.297Z,9.20
2022-12-27T11:37:22.677Z,9.10
2022-12-27T11:42:19.105Z,9.10
2022-12-27T11:44:48.977Z,9.10
2022-12-27T11:50:06.044Z,9.00
2022-12-27T11:55:18.839Z,8.90
2022-12-27T11:58:04.688Z,8.90
2022-12-27T12:00:43.887Z,8.90
2022-12-27T12:03:29.221Z,8.80
2022-12-27T12:06:03.266Z,8.80
2022-12-27T12:08:38.854Z,8.60
2022-12-27T12:11:24.064Z,8.60
2022-12-27T12:14:03.225Z,8.60
2022-12-27T12:16:47.184Z,8.90
2022-12-27T12:19:14.038Z,8.90
2022-12-27T12:24:20.069Z,8.90
2022-12-27T12:27:05.516Z,8.90
2022-12-27T12:29:47.704Z,9.00
2022-12-27T12:32:21.933Z,8.80
2022-12-27T12:34:54.861Z,8.70
2022-12-27T12:37:21.926Z,8.70
2022-12-27T12:40:07.380Z,8.70
2022-12-27T12:42:34.395Z,8.70
2022-12-27T12:45:01.276Z,8.60
2022-12-27T12:47:31.216Z,8.60
2022-12-27T12:49:58.091Z,8.60
2022-12-27T12:52:27.734Z,8.60
2022-12-27T12:55:04.894Z,8.60
2022-12-27T12:57:50.171Z,8.60
2022-12-27T13:00:17.053Z,8.50
2022-12-27T13:02:44.008Z,8.50
2022-12-27T13:05:29.473Z,8.50
2022-12-27T13:08:02.187Z,8.50
2022-12-27T13:10:45.845Z,8.50
2022-12-27T13:13:16.819Z,8.60
2022-12-27T13:15:49.484Z,8.70
2022-12-27T13:18:28.350Z,8.70
2022-12-27T13:21:12.106Z,8.50
2022-12-27T13:23:56.646Z,8.40
2022-12-27T13:26:38.714Z,8.20
2022-12-27T13:29:24.256Z,8.30
2022-12-27T13:31:56.915Z,8.30
2022-12-27T13:34:50.189Z,8.20
2022-12-27T13:37:26.394Z,8.10
2022-12-27T13:39:59.178Z,8.00
2022-12-27T13:42:45.068Z,7.90
2022-12-27T13:45:17.967Z,6.70
2022-12-27T13:47:54.785Z,8.00
2022-12-27T13:50:35.842Z,7.80
2022-12-27T13:58:11.947Z,7.60
2022-12-27T14:00:43.691Z,7.50
2022-12-27T14:03:19.785Z,7.50
2022-12-27T14:08:25.557Z,7.30
2022-12-27T14:11:00.760Z,7.20
2022-12-27T14:13:31.133Z,7.10
2022-12-27T14:16:04.274Z,7.10
2022-12-27T14:18:39.503Z,7.00
2022-12-27T14:21:06.418Z,6.80
2022-12-27T14:23:36.025Z,6.70
2022-12-27T14:26:38.549Z,6.30
2022-12-27T14:29:23.814Z,6.10
2022-12-27T14:34:31.642Z,5.80
2022-12-27T14:39:55.263Z,5.70
2022-12-27T14:42:40.791Z,5.50
2022-12-27T14:45:14.309Z,5.00
2022-12-27T14:47:47.225Z,4.80
2022-12-27T14:50:17.302Z,4.60
2022-12-27T14:53:02.815Z,4.50
2022-12-27T14:55:38.500Z,4.40
2022-12-27T14:58:11.377Z,4.00
2022-12-27T15:03:35.847Z,3.70
2022-12-27T15:06:22.630Z,3.60
2022-12-27T15:08:53.454Z,3.40
2022-12-27T15:11:23.472Z,3.30
2022-12-27T15:16:36.151Z,3.10
2022-12-27T15:19:16.448Z,3.00
2022-12-27T15:21:43.296Z,2.90
2022-12-27T15:24:10.239Z,2.90
2022-12-27T15:26:41.071Z,2.70
2022-12-27T15:29:26.831Z,2.40
2022-12-27T15:32:04.574Z,2.50
2022-12-27T15:34:49.832Z,2.40
2022-12-27T15:37:35.546Z,2.20
2022-12-27T15:42:38.662Z,2.00
2022-12-27T15:45:14.283Z,1.90
2022-12-27T15:47:56.804Z,1.70
2022-12-27T15:50:23.671Z,1.60
2022-12-27T15:55:20.265Z,1.60
2022-12-27T15:57:56.013Z,1.70
2022-12-27T16:00:22.835Z,1.60
2022-12-27T16:02:51.975Z,1.30
2022-12-27T16:05:19.122Z,1.30
2022-12-27T16:07:46.418Z,1.20
2022-12-27T16:10:28.446Z,1.10
2022-12-27T16:12:56.171Z,1.00
2022-12-27T16:15:52.505Z,0.90
2022-12-27T16:18:19.523Z,1.00
2022-12-27T16:21:02.810Z,1.00
2022-12-27T16:26:04.417Z,0.90
2022-12-27T16:28:32.409Z,0.90
2022-12-27T16:31:00.372Z,0.60
2022-12-27T16:33:31.298Z,0.60
2022-12-27T16:36:05.409Z,0.70
2022-12-27T16:38:34.402Z,0.60
2022-12-27T16:41:19.993Z,0.60
2022-12-27T16:43:52.603Z,0.50
2022-12-27T16:46:22.582Z,0.50
2022-12-27T16:49:12.818Z,0.40
2022-12-27T16:51:55.032Z,0.30
2022-12-27T16:54:26.683Z,0.40
2022-12-27T16:57:16.932Z,0.50
2022-12-27T17:02:45.137Z,0.70
2022-12-27T17:05:15.318Z,0.80
2022-12-27T17:10:27.961Z,0.90
2022-12-27T17:12:58.182Z,1.00
2022-12-27T17:15:25.781Z,1.10
2022-12-27T17:17:54.491Z,1.10
2022-12-27T17:25:17.820Z,1.00
2022-12-27T17:27:53.769Z,0.90
2022-12-27T17:30:22.107Z,0.70
2022-12-27T17:33:07.890Z,0.70
2022-12-27T17:35:41.190Z,0.60
2022-12-27T17:38:08.339Z,0.60
2022-12-27T17:40:38.752Z,0.60
2022-12-27T17:43:30.499Z,0.60
2022-12-27T17:46:15.940Z,0.50
2022-12-27T17:48:43.024Z,0.40
2022-12-27T17:51:12.358Z,0.50
2022-12-27T17:54:04.318Z,0.50
2022-12-27T17:57:00.340Z,0.40
2022-12-27T17:59:28.353Z,0.30
2022-12-27T18:01:57.706Z,0.20
2022-12-27T18:04:26.673Z,0.20
2022-12-27T18:07:13.736Z,0.10
2022-12-27T18:09:46.631Z,0.20
2022-12-27T18:12:13.786Z,0.10
2022-12-27T18:14:40.951Z,0.00
2022-12-27T18:22:04.033Z,0.00
2022-12-27T18:24:32.376Z,0.10
2022-12-27T18:27:03.221Z,0.10
2022-12-27T18:29:30.616Z,0.10
2022-12-27T18:32:02.049Z,0.20
2022-12-27T18:41:52.968Z,0.30
2022-12-27T18:44:27.590Z,0.30
2022-12-27T18:46:59.495Z,0.20
2022-12-27T18:49:27.618Z,0.20
2022-12-27T18:51:55.420Z,0.20
2022-12-27T18:54:30.519Z,0.20
2022-12-27T18:59:28.000Z,-0.10
2022-12-27T19:01:56.425Z,-0.10
2022-12-27T19:04:25.685Z,0.10
2022-12-27T19:07:09.717Z,0.10
2022-12-27T19:09:38.737Z,0.30
2022-12-27T19:12:07.734Z,0.30
2022-12-27T19:14:43.011Z,0.40
2022-12-27T19:17:19.803Z,0.30
2022-12-27T19:19:48.667Z,0.30
2022-12-27T19:22:33.846Z,0.30
2022-12-27T19:29:56.674Z,0.60
2022-12-27T19:32:34.568Z,0.70
2022-12-27T19:35:03.006Z,0.70
2022-12-27T19:37:30.992Z,0.80
2022-12-27T19:44:53.117Z,0.70
2022-12-27T19:47:22.650Z,0.80
2022-12-27T19:49:50.085Z,0.80
2022-12-27T19:52:19.705Z,0.80
2022-12-27T19:59:42.038Z,0.80
2022-12-27T20:07:05.481Z,0.70
2022-12-27T20:09:32.661Z,0.60
2022-12-27T20:12:00.093Z,0.60
2022-12-27T20:14:27.548Z,0.60
2022-12-27T20:16:54.708Z,0.60
2022-12-27T20:19:23.935Z,0.60
2022-12-27T20:21:51.038Z,0.70
2022-12-27T20:24:18.074Z,0.80
2022-12-27T20:26:46.589Z,0.80
2022-12-27T20:29:15.628Z,0.90
2022-12-27T20:31:45.452Z,0.90
2022-12-27T20:34:13.320Z,1.00
2022-12-27T20:36:43.124Z,1.00
2022-12-27T20:39:10.432Z,1.10
2022-12-27T20:41:37.412Z,1.20
2022-12-27T20:44:04.959Z,1.30
2022-12-27T20:46:31.957Z,1.40
2022-12-27T20:48:58.871Z,1.40
2022-12-27T20:53:56.131Z,1.50
2022-12-27T20:56:23.773Z,1.50
2022-12-27T20:58:50.795Z,1.50
2022-12-27T21:01:19.121Z,1.60
2022-12-27T21:03:46.423Z,1.50
2022-12-27T21:06:17.529Z,1.50
2022-12-27T21:08:49.198Z,1.50
2022-12-27T21:11:22.334Z,1.50
2022-12-27T21:13:49.275Z,1.60
2022-12-27T21:16:19.092Z,1.60
2022-12-27T21:18:46.216Z,1.50
2022-12-27T21:21:15.225Z,1.70
2022-12-27T21:23:43.497Z,1.70
2022-12-27T21:26:18.364Z,1.80
2022-12-27T21:31:13.094Z,1.80
2022-12-27T21:33:40.353Z,1.90
2022-12-27T21:38:34.928Z,2.10
2022-12-27T21:41:03.225Z,2.20
2022-12-27T21:43:30.601Z,2.30
2022-12-27T21:45:58.094Z,2.40
2022-12-27T21:48:25.404Z,2.40
2022-12-27T21:50:52.349Z,2.50
2022-12-27T21:53:21.802Z,2.50
2022-12-27T21:55:48.737Z,2.60
2022-12-27T21:58:16.400Z,2.60
2022-12-27T22:00:43.347Z,2.70
2022-12-27T22:03:10.282Z,2.70
2022-12-27T22:05:37.260Z,2.70
2022-12-27T22:08:05.267Z,2.70
2022-12-27T22:10:32.085Z,2.80
2022-12-27T22:12:59.088Z,2.80
2022-12-27T22:17:54.085Z,2.90
2022-12-27T22:20:21.088Z,3.00
2022-12-27T22:22:47.941Z,3.00
2022-12-27T22:25:14.808Z,3.00
2022-12-27T22:27:41.774Z,3.00
2022-12-27T22:30:10.567Z,3.10
2022-12-27T22:32:37.442Z,3.10
2022-12-27T22:35:04.418Z,3.10
2022-12-27T22:37:31.317Z,3.10
2022-12-27T22:39:58.266Z,3.10
2022-12-27T22:42:25.074Z,3.20
2022-12-27T22:47:27.935Z,3.20
2022-12-27T22:49:55.372Z,3.10
2022-12-27T22:52:22.283Z,3.00
2022-12-27T22:55:05.554Z,3.00
2022-12-27T22:57:33.637Z,3.10
2022-12-27T23:00:00.517Z,3.10
2022-12-27T23:04:54.807Z,3.00
2022-12-27T23:08:04.961Z,3.00
2022-12-27T23:15:03.623Z,3.00
2022-12-27T23:17:30.636Z,3.10
2022-12-27T23:19:57.566Z,3.10
2022-12-27T23:22:24.455Z,3.10
2022-12-27T23:29:45.826Z,3.20
2022-12-27T23:32:12.700Z,3.20
2022-12-27T23:34:39.613Z,3.20
2022-12-27T23:37:06.523Z,3.10
2022-12-27T23:39:33.557Z,3.10
2022-12-27T23:42:00.542Z,3.10
2022-12-27T23:44:33.902Z,3.20
2022-12-27T23:47:05.492Z,3.20
2022-12-27T23:49:33.007Z,3.30
2022-12-27T23:51:59.915Z,3.30
2022-12-27T23:54:26.857Z,3.20
2022-12-27T23:59:21.146Z,3.40
